sensor_id;sensor_type;location;lat;lon;timestamp;temperature;humidity
75819;DHT22;64453;51.944;9.796;2023-05-25T00:00:18;15.00;58.60
75819;DHT22;64453;51.944;9.796;2023-05-25T00:02:46;15.20;58.70
75819;DHT22;64453;51.944;9.796;2023-05-25T00:05:13;15.30;58.70
75819;DHT22;64453;51.944;9.796;2023-05-25T00:07:42;15.40;58.50
75819;DHT22;64453;51.944;9.796;2023-05-25T00:10:11;15.10;57.90
75819;DHT22;64453;51.944;9.796;2023-05-25T00:12:37;15.00;58.30
75819;DHT22;64453;51.944;9.796;2023-05-25T00:15:05;14.90;58.40
75819;DHT22;64453;51.944;9.796;2023-05-25T00:17:33;14.70;58.30
75819;DHT22;64453;51.944;9.796;2023-05-25T00:20:01;14.90;58.20
75819;DHT22;64453;51.944;9.796;2023-05-25T00:22:34;15.00;57.90
75819;DHT22;64453;51.944;9.796;2023-05-25T00:25:01;15.00;57.60
75819;DHT22;64453;51.944;9.796;2023-05-25T00:27:30;15.10;57.20
75819;DHT22;64453;51.944;9.796;2023-05-25T00:29:57;14.70;56.90
75819;DHT22;64453;51.944;9.796;2023-05-25T00:32:24;14.60;57.80
75819;DHT22;64453;51.944;9.796;2023-05-25T00:34:51;14.80;57.40
75819;DHT22;64453;51.944;9.796;2023-05-25T00:37:17;14.80;56.90
75819;DHT22;64453;51.944;9.796;2023-05-25T00:39:45;14.90;56.60
75819;DHT22;64453;51.944;9.796;2023-05-25T00:42:12;14.90;56.80
75819;DHT22;64453;51.944;9.796;2023-05-25T00:44:41;14.50;56.60
75819;DHT22;64453;51.944;9.796;2023-05-25T00:47:08;14.60;56.90
75819;DHT22;64453;51.944;9.796;2023-05-25T00:49:36;14.50;56.70
75819;DHT22;64453;51.944;9.796;2023-05-25T00:52:03;14.20;57.30
75819;DHT22;64453;51.944;9.796;2023-05-25T00:54:31;14.10;57.10
75819;DHT22;64453;51.944;9.796;2023-05-25T00:57:00;14.30;57.40
75819;DHT22;64453;51.944;9.796;2023-05-25T00:59:31;14.30;56.90
75819;DHT22;64453;51.944;9.796;2023-05-25T01:02:06;14.40;56.10
75819;DHT22;64453;51.944;9.796;2023-05-25T01:04:38;13.90;56.80
75819;DHT22;64453;51.944;9.796;2023-05-25T01:07:13;13.80;58.70
75819;DHT22;64453;51.944;9.796;2023-05-25T01:09:43;13.80;57.90
75819;DHT22;64453;51.944;9.796;2023-05-25T01:12:13;13.90;57.70
75819;DHT22;64453;51.944;9.796;2023-05-25T01:14:41;13.60;57.50
75819;DHT22;64453;51.944;9.796;2023-05-25T01:17:13;13.50;57.70
75819;DHT22;64453;51.944;9.796;2023-05-25T01:19:41;13.60;56.60
75819;DHT22;64453;51.944;9.796;2023-05-25T01:22:14;13.90;56.40
75819;DHT22;64453;51.944;9.796;2023-05-25T01:24:49;13.70;56.60
75819;DHT22;64453;51.944;9.796;2023-05-25T01:27:22;13.90;56.80
75819;DHT22;64453;51.944;9.796;2023-05-25T01:29:52;14.00;56.20
75819;DHT22;64453;51.944;9.796;2023-05-25T01:32:20;14.20;55.80
75819;DHT22;64453;51.944;9.796;2023-05-25T01:34:48;14.20;55.20
75819;DHT22;64453;51.944;9.796;2023-05-25T01:37:17;13.70;56.00
75819;DHT22;64453;51.944;9.796;2023-05-25T01:39:47;13.10;56.60
75819;DHT22;64453;51.944;9.796;2023-05-25T01:42:14;12.80;56.90
75819;DHT22;64453;51.944;9.796;2023-05-25T01:44:41;12.80;56.90
75819;DHT22;64453;51.944;9.796;2023-05-25T01:47:14;12.60;57.10
75819;DHT22;64453;51.944;9.796;2023-05-25T01:49:50;12.80;56.70
75819;DHT22;64453;51.944;9.796;2023-05-25T01:52:25;12.80;56.30
75819;DHT22;64453;51.944;9.796;2023-05-25T01:54:59;12.60;57.20
75819;DHT22;64453;51.944;9.796;2023-05-25T01:57:29;12.80;56.70
75819;DHT22;64453;51.944;9.796;2023-05-25T01:59:57;13.00;56.20
75819;DHT22;64453;51.944;9.796;2023-05-25T02:02:25;12.90;56.10
75819;DHT22;64453;51.944;9.796;2023-05-25T02:04:53;12.90;56.00
75819;DHT22;64453;51.944;9.796;2023-05-25T02:07:22;13.20;56.00
75819;DHT22;64453;51.944;9.796;2023-05-25T02:09:50;13.10;55.70
75819;DHT22;64453;51.944;9.796;2023-05-25T02:12:17;12.90;55.60
75819;DHT22;64453;51.944;9.796;2023-05-25T02:14:44;12.90;55.90
75819;DHT22;64453;51.944;9.796;2023-05-25T02:17:13;12.80;55.60
75819;DHT22;64453;51.944;9.796;2023-05-25T02:19:42;12.70;55.80
75819;DHT22;64453;51.944;9.796;2023-05-25T02:22:09;12.60;55.40
75819;DHT22;64453;51.944;9.796;2023-05-25T02:24:37;13.00;55.70
75819;DHT22;64453;51.944;9.796;2023-05-25T02:27:04;13.00;55.20
75819;DHT22;64453;51.944;9.796;2023-05-25T02:29:32;12.80;56.30
75819;DHT22;64453;51.944;9.796;2023-05-25T02:31:58;13.00;55.60
75819;DHT22;64453;51.944;9.796;2023-05-25T02:34:25;13.00;55.40
75819;DHT22;64453;51.944;9.796;2023-05-25T02:36:52;12.90;55.30
75819;DHT22;64453;51.944;9.796;2023-05-25T02:39:19;12.50;56.00
75819;DHT22;64453;51.944;9.796;2023-05-25T02:41:47;12.40;56.00
75819;DHT22;64453;51.944;9.796;2023-05-25T02:44:14;12.10;56.20
75819;DHT22;64453;51.944;9.796;2023-05-25T02:46:41;12.50;56.00
75819;DHT22;64453;51.944;9.796;2023-05-25T02:49:08;12.70;55.90
75819;DHT22;64453;51.944;9.796;2023-05-25T02:51:34;12.90;55.60
75819;DHT22;64453;51.944;9.796;2023-05-25T02:54:01;12.70;56.00
75819;DHT22;64453;51.944;9.796;2023-05-25T02:56:28;12.90;56.20
75819;DHT22;64453;51.944;9.796;2023-05-25T02:58:57;13.00;55.70
75819;DHT22;64453;51.944;9.796;2023-05-25T03:01:24;12.90;55.70
75819;DHT22;64453;51.944;9.796;2023-05-25T03:03:55;12.70;55.90
75819;DHT22;64453;51.944;9.796;2023-05-25T03:06:22;12.70;56.40
75819;DHT22;64453;51.944;9.796;2023-05-25T03:08:50;12.80;56.30
75819;DHT22;64453;51.944;9.796;2023-05-25T03:11:17;12.90;56.80
75819;DHT22;64453;51.944;9.796;2023-05-25T03:13:44;12.90;56.60
75819;DHT22;64453;51.944;9.796;2023-05-25T03:16:12;13.20;56.50
75819;DHT22;64453;51.944;9.796;2023-05-25T03:18:39;13.20;56.60
75819;DHT22;64453;51.944;9.796;2023-05-25T03:21:05;13.00;57.50
75819;DHT22;64453;51.944;9.796;2023-05-25T03:23:32;12.90;57.90
75819;DHT22;64453;51.944;9.796;2023-05-25T03:25:59;13.10;58.00
75819;DHT22;64453;51.944;9.796;2023-05-25T03:28:26;13.40;58.00
75819;DHT22;64453;51.944;9.796;2023-05-25T03:30:53;13.40;57.60
75819;DHT22;64453;51.944;9.796;2023-05-25T03:33:22;13.40;57.30
75819;DHT22;64453;51.944;9.796;2023-05-25T03:35:49;13.20;57.90
75819;DHT22;64453;51.944;9.796;2023-05-25T03:38:16;13.30;58.30
75819;DHT22;64453;51.944;9.796;2023-05-25T03:40:42;13.30;58.20
75819;DHT22;64453;51.944;9.796;2023-05-25T03:43:09;13.10;58.90
75819;DHT22;64453;51.944;9.796;2023-05-25T03:45:36;13.00;58.90
75819;DHT22;64453;51.944;9.796;2023-05-25T03:48:03;13.10;59.40
75819;DHT22;64453;51.944;9.796;2023-05-25T03:50:32;13.30;59.30
75819;DHT22;64453;51.944;9.796;2023-05-25T03:52:59;13.30;59.30
75819;DHT22;64453;51.944;9.796;2023-05-25T03:55:26;13.40;59.50
75819;DHT22;64453;51.944;9.796;2023-05-25T03:57:53;13.60;59.40
75819;DHT22;64453;51.944;9.796;2023-05-25T04:00:20;13.70;59.40
75819;DHT22;64453;51.944;9.796;2023-05-25T04:02:47;13.80;59.60
75819;DHT22;64453;51.944;9.796;2023-05-25T04:05:14;13.90;59.60
75819;DHT22;64453;51.944;9.796;2023-05-25T04:07:42;13.90;59.40
75819;DHT22;64453;51.944;9.796;2023-05-25T04:10:10;14.00;59.40
75819;DHT22;64453;51.944;9.796;2023-05-25T04:12:37;14.00;59.30
75819;DHT22;64453;51.944;9.796;2023-05-25T04:15:05;14.00;59.20
75819;DHT22;64453;51.944;9.796;2023-05-25T04:17:33;14.00;59.20
75819;DHT22;64453;51.944;9.796;2023-05-25T04:20:00;13.90;59.20
75819;DHT22;64453;51.944;9.796;2023-05-25T04:22:28;14.00;59.10
75819;DHT22;64453;51.944;9.796;2023-05-25T04:24:56;14.10;59.20
75819;DHT22;64453;51.944;9.796;2023-05-25T04:27:23;14.20;59.50
75819;DHT22;64453;51.944;9.796;2023-05-25T04:29:51;14.30;59.40
75819;DHT22;64453;51.944;9.796;2023-05-25T04:32:18;14.30;59.20
75819;DHT22;64453;51.944;9.796;2023-05-25T04:34:45;14.30;59.60
75819;DHT22;64453;51.944;9.796;2023-05-25T04:37:13;14.20;59.70
75819;DHT22;64453;51.944;9.796;2023-05-25T04:39:40;14.20;59.70
75819;DHT22;64453;51.944;9.796;2023-05-25T04:42:08;14.30;59.70
75819;DHT22;64453;51.944;9.796;2023-05-25T04:44:35;14.40;59.80
75819;DHT22;64453;51.944;9.796;2023-05-25T04:47:02;14.40;60.80
75819;DHT22;64453;51.944;9.796;2023-05-25T04:49:29;14.30;59.80
75819;DHT22;64453;51.944;9.796;2023-05-25T04:51:56;14.20;60.20
75819;DHT22;64453;51.944;9.796;2023-05-25T04:54:23;14.20;59.90
75819;DHT22;64453;51.944;9.796;2023-05-25T04:56:50;14.30;60.40
75819;DHT22;64453;51.944;9.796;2023-05-25T04:59:18;14.40;60.10
75819;DHT22;64453;51.944;9.796;2023-05-25T05:01:45;14.10;60.60
75819;DHT22;64453;51.944;9.796;2023-05-25T05:04:12;14.10;61.70
75819;DHT22;64453;51.944;9.796;2023-05-25T05:06:40;14.30;61.50
75819;DHT22;64453;51.944;9.796;2023-05-25T05:09:07;14.40;61.70
75819;DHT22;64453;51.944;9.796;2023-05-25T05:11:34;14.40;61.70
75819;DHT22;64453;51.944;9.796;2023-05-25T05:14:01;14.50;61.40
75819;DHT22;64453;51.944;9.796;2023-05-25T05:16:30;14.50;61.50
75819;DHT22;64453;51.944;9.796;2023-05-25T05:18:59;14.70;61.40
75819;DHT22;64453;51.944;9.796;2023-05-25T05:21:26;14.70;61.10
75819;DHT22;64453;51.944;9.796;2023-05-25T05:23:53;14.70;60.80
75819;DHT22;64453;51.944;9.796;2023-05-25T05:26:21;14.70;60.80
75819;DHT22;64453;51.944;9.796;2023-05-25T05:28:48;14.70;60.90
75819;DHT22;64453;51.944;9.796;2023-05-25T05:31:17;14.80;60.80
75819;DHT22;64453;51.944;9.796;2023-05-25T05:33:45;14.70;61.10
75819;DHT22;64453;51.944;9.796;2023-05-25T05:36:12;14.80;61.70
75819;DHT22;64453;51.944;9.796;2023-05-25T05:38:39;14.80;61.60
75819;DHT22;64453;51.944;9.796;2023-05-25T05:41:06;14.90;61.00
75819;DHT22;64453;51.944;9.796;2023-05-25T05:43:38;14.80;61.10
75819;DHT22;64453;51.944;9.796;2023-05-25T05:46:06;14.80;61.60
75819;DHT22;64453;51.944;9.796;2023-05-25T05:48:34;14.80;61.50
75819;DHT22;64453;51.944;9.796;2023-05-25T05:51:03;14.90;60.90
75819;DHT22;64453;51.944;9.796;2023-05-25T05:53:30;14.90;60.20
75819;DHT22;64453;51.944;9.796;2023-05-25T05:55:58;14.90;60.60
75819;DHT22;64453;51.944;9.796;2023-05-25T05:58:25;14.90;60.90
75819;DHT22;64453;51.944;9.796;2023-05-25T06:00:52;14.90;60.70
75819;DHT22;64453;51.944;9.796;2023-05-25T06:03:19;14.80;60.30
75819;DHT22;64453;51.944;9.796;2023-05-25T06:05:46;14.70;60.20
75819;DHT22;64453;51.944;9.796;2023-05-25T06:08:14;14.60;60.30
75819;DHT22;64453;51.944;9.796;2023-05-25T06:10:41;14.70;60.40
75819;DHT22;64453;51.944;9.796;2023-05-25T06:13:08;14.80;60.50
75819;DHT22;64453;51.944;9.796;2023-05-25T06:15:35;14.90;60.30
75819;DHT22;64453;51.944;9.796;2023-05-25T06:18:01;14.90;60.30
75819;DHT22;64453;51.944;9.796;2023-05-25T06:20:29;14.90;59.80
75819;DHT22;64453;51.944;9.796;2023-05-25T06:22:55;14.90;60.00
75819;DHT22;64453;51.944;9.796;2023-05-25T06:25:23;14.90;60.00
75819;DHT22;64453;51.944;9.796;2023-05-25T06:27:50;14.70;59.60
75819;DHT22;64453;51.944;9.796;2023-05-25T06:30:17;14.70;60.20
75819;DHT22;64453;51.944;9.796;2023-05-25T06:32:44;14.90;60.80
75819;DHT22;64453;51.944;9.796;2023-05-25T06:35:11;15.00;60.90
75819;DHT22;64453;51.944;9.796;2023-05-25T06:37:44;15.10;60.30
75819;DHT22;64453;51.944;9.796;2023-05-25T06:40:11;15.10;59.80
75819;DHT22;64453;51.944;9.796;2023-05-25T06:42:40;15.10;59.40
75819;DHT22;64453;51.944;9.796;2023-05-25T06:45:08;15.00;60.00
75819;DHT22;64453;51.944;9.796;2023-05-25T06:47:35;15.10;59.90
75819;DHT22;64453;51.944;9.796;2023-05-25T06:50:03;14.90;60.90
75819;DHT22;64453;51.944;9.796;2023-05-25T06:52:30;15.10;61.00
75819;DHT22;64453;51.944;9.796;2023-05-25T06:54:57;15.20;60.70
75819;DHT22;64453;51.944;9.796;2023-05-25T06:57:24;15.20;60.00
75819;DHT22;64453;51.944;9.796;2023-05-25T06:59:52;14.70;59.10
75819;DHT22;64453;51.944;9.796;2023-05-25T07:02:19;14.70;60.70
75819;DHT22;64453;51.944;9.796;2023-05-25T07:04:46;14.90;60.60
75819;DHT22;64453;51.944;9.796;2023-05-25T07:07:13;14.70;60.90
75819;DHT22;64453;51.944;9.796;2023-05-25T07:09:39;14.90;60.70
75819;DHT22;64453;51.944;9.796;2023-05-25T07:12:07;14.90;60.70
75819;DHT22;64453;51.944;9.796;2023-05-25T07:14:36;14.90;61.10
75819;DHT22;64453;51.944;9.796;2023-05-25T07:17:04;14.80;61.40
75819;DHT22;64453;51.944;9.796;2023-05-25T07:19:31;14.60;61.10
75819;DHT22;64453;51.944;9.796;2023-05-25T07:21:58;14.80;61.30
75819;DHT22;64453;51.944;9.796;2023-05-25T07:24:25;14.90;60.80
75819;DHT22;64453;51.944;9.796;2023-05-25T07:26:51;14.90;61.00
75819;DHT22;64453;51.944;9.796;2023-05-25T07:29:18;14.80;61.30
75819;DHT22;64453;51.944;9.796;2023-05-25T07:31:45;14.60;60.90
75819;DHT22;64453;51.944;9.796;2023-05-25T07:34:13;14.40;61.80
75819;DHT22;64453;51.944;9.796;2023-05-25T07:36:40;14.60;61.60
75819;DHT22;64453;51.944;9.796;2023-05-25T07:39:07;14.30;61.50
75819;DHT22;64453;51.944;9.796;2023-05-25T07:41:35;14.30;62.20
75819;DHT22;64453;51.944;9.796;2023-05-25T07:44:02;14.40;62.30
75819;DHT22;64453;51.944;9.796;2023-05-25T07:46:29;14.20;61.10
75819;DHT22;64453;51.944;9.796;2023-05-25T07:48:56;14.30;62.40
75819;DHT22;64453;51.944;9.796;2023-05-25T07:51:27;14.50;61.10
75819;DHT22;64453;51.944;9.796;2023-05-25T07:53:55;14.70;60.60
75819;DHT22;64453;51.944;9.796;2023-05-25T07:56:23;14.80;59.40
75819;DHT22;64453;51.944;9.796;2023-05-25T07:58:49;14.80;59.30
75819;DHT22;64453;51.944;9.796;2023-05-25T08:01:16;14.70;59.90
75819;DHT22;64453;51.944;9.796;2023-05-25T08:03:43;14.50;59.60
75819;DHT22;64453;51.944;9.796;2023-05-25T08:06:11;14.90;60.30
75819;DHT22;64453;51.944;9.796;2023-05-25T08:08:39;14.90;58.90
75819;DHT22;64453;51.944;9.796;2023-05-25T08:11:06;14.80;58.80
75819;DHT22;64453;51.944;9.796;2023-05-25T08:13:33;14.60;59.50
75819;DHT22;64453;51.944;9.796;2023-05-25T08:16:00;14.20;60.70
75819;DHT22;64453;51.944;9.796;2023-05-25T08:18:27;14.50;61.90
75819;DHT22;64453;51.944;9.796;2023-05-25T08:20:55;14.30;60.50
75819;DHT22;64453;51.944;9.796;2023-05-25T08:23:23;14.20;60.80
75819;DHT22;64453;51.944;9.796;2023-05-25T08:25:51;14.60;60.90
75819;DHT22;64453;51.944;9.796;2023-05-25T08:28:19;14.60;59.20
75819;DHT22;64453;51.944;9.796;2023-05-25T08:30:46;14.70;59.60
75819;DHT22;64453;51.944;9.796;2023-05-25T08:33:12;15.10;59.80
75819;DHT22;64453;51.944;9.796;2023-05-25T08:35:39;15.30;59.90
75819;DHT22;64453;51.944;9.796;2023-05-25T08:38:07;15.40;58.20
75819;DHT22;64453;51.944;9.796;2023-05-25T08:40:35;15.20;58.30
75819;DHT22;64453;51.944;9.796;2023-05-25T08:43:04;15.20;58.80
75819;DHT22;64453;51.944;9.796;2023-05-25T08:45:31;15.00;59.80
75819;DHT22;64453;51.944;9.796;2023-05-25T08:47:58;14.80;60.10
75819;DHT22;64453;51.944;9.796;2023-05-25T08:50:29;14.70;59.60
75819;DHT22;64453;51.944;9.796;2023-05-25T08:53:02;15.00;59.70
75819;DHT22;64453;51.944;9.796;2023-05-25T08:55:32;15.20;57.90
75819;DHT22;64453;51.944;9.796;2023-05-25T08:58:09;15.40;58.90
75819;DHT22;64453;51.944;9.796;2023-05-25T09:00:49;15.70;58.30
75819;DHT22;64453;51.944;9.796;2023-05-25T09:03:18;15.80;57.30
75819;DHT22;64453;51.944;9.796;2023-05-25T09:05:46;15.80;57.20
75819;DHT22;64453;51.944;9.796;2023-05-25T09:08:13;15.40;57.30
75819;DHT22;64453;51.944;9.796;2023-05-25T09:10:41;15.30;58.10
75819;DHT22;64453;51.944;9.796;2023-05-25T09:13:09;15.20;59.50
75819;DHT22;64453;51.944;9.796;2023-05-25T09:15:36;15.50;58.90
75819;DHT22;64453;51.944;9.796;2023-05-25T09:18:03;15.70;58.20
75819;DHT22;64453;51.944;9.796;2023-05-25T09:20:30;15.90;58.30
75819;DHT22;64453;51.944;9.796;2023-05-25T09:22:57;15.90;57.60
75819;DHT22;64453;51.944;9.796;2023-05-25T09:25:25;16.00;57.40
75819;DHT22;64453;51.944;9.796;2023-05-25T09:27:54;16.00;57.60
75819;DHT22;64453;51.944;9.796;2023-05-25T09:30:24;16.00;57.50
75819;DHT22;64453;51.944;9.796;2023-05-25T09:32:52;15.90;57.40
75819;DHT22;64453;51.944;9.796;2023-05-25T09:35:20;16.00;57.20
75819;DHT22;64453;51.944;9.796;2023-05-25T09:37:48;16.00;56.90
75819;DHT22;64453;51.944;9.796;2023-05-25T09:40:19;16.10;58.30
75819;DHT22;64453;51.944;9.796;2023-05-25T09:42:46;16.30;57.60
75819;DHT22;64453;51.944;9.796;2023-05-25T09:45:13;16.20;57.10
75819;DHT22;64453;51.944;9.796;2023-05-25T09:47:41;15.80;58.70
75819;DHT22;64453;51.944;9.796;2023-05-25T09:50:08;16.00;59.60
75819;DHT22;64453;51.944;9.796;2023-05-25T09:52:37;15.70;58.70
75819;DHT22;64453;51.944;9.796;2023-05-25T09:55:08;15.80;59.10
75819;DHT22;64453;51.944;9.796;2023-05-25T09:57:37;15.40;59.90
75819;DHT22;64453;51.944;9.796;2023-05-25T10:00:05;15.80;59.40
75819;DHT22;64453;51.944;9.796;2023-05-25T10:02:34;15.70;58.40
75819;DHT22;64453;51.944;9.796;2023-05-25T10:05:03;15.50;57.40
75819;DHT22;64453;51.944;9.796;2023-05-25T10:07:32;15.90;58.30
75819;DHT22;64453;51.944;9.796;2023-05-25T10:10:02;16.00;58.70
75819;DHT22;64453;51.944;9.796;2023-05-25T10:12:32;15.70;57.60
75819;DHT22;64453;51.944;9.796;2023-05-25T10:15:02;15.80;60.00
75819;DHT22;64453;51.944;9.796;2023-05-25T10:17:31;15.90;59.30
75819;DHT22;64453;51.944;9.796;2023-05-25T10:20:05;15.80;59.40
75819;DHT22;64453;51.944;9.796;2023-05-25T10:22:37;16.00;60.10
75819;DHT22;64453;51.944;9.796;2023-05-25T10:25:09;15.80;59.80
75819;DHT22;64453;51.944;9.796;2023-05-25T10:27:43;15.80;59.40
75819;DHT22;64453;51.944;9.796;2023-05-25T10:30:13;16.40;59.90
75819;DHT22;64453;51.944;9.796;2023-05-25T10:32:41;16.40;60.10
75819;DHT22;64453;51.944;9.796;2023-05-25T10:35:11;16.50;59.80
75819;DHT22;64453;51.944;9.796;2023-05-25T10:37:39;16.60;59.80
75819;DHT22;64453;51.944;9.796;2023-05-25T10:40:07;16.80;60.10
75819;DHT22;64453;51.944;9.796;2023-05-25T10:42:35;16.50;57.90
75819;DHT22;64453;51.944;9.796;2023-05-25T10:45:04;16.50;58.40
75819;DHT22;64453;51.944;9.796;2023-05-25T10:47:33;16.40;58.60
75819;DHT22;64453;51.944;9.796;2023-05-25T10:50:01;16.40;57.50
75819;DHT22;64453;51.944;9.796;2023-05-25T10:52:30;16.20;58.20
75819;DHT22;64453;51.944;9.796;2023-05-25T10:54:59;16.50;58.80
75819;DHT22;64453;51.944;9.796;2023-05-25T10:57:28;16.60;57.80
75819;DHT22;64453;51.944;9.796;2023-05-25T11:00:01;16.70;58.90
75819;DHT22;64453;51.944;9.796;2023-05-25T11:02:47;16.50;56.80
75819;DHT22;64453;51.944;9.796;2023-05-25T11:05:33;16.50;57.10
75819;DHT22;64453;51.944;9.796;2023-05-25T11:08:05;16.60;58.00
75819;DHT22;64453;51.944;9.796;2023-05-25T11:10:51;16.80;58.50
75819;DHT22;64453;51.944;9.796;2023-05-25T11:13:36;16.60;57.40
75819;DHT22;64453;51.944;9.796;2023-05-25T11:16:17;16.70;57.30
75819;DHT22;64453;51.944;9.796;2023-05-25T11:18:50;16.60;57.90
75819;DHT22;64453;51.944;9.796;2023-05-25T11:21:40;17.00;58.00
75819;DHT22;64453;51.944;9.796;2023-05-25T11:24:14;16.90;58.80
75819;DHT22;64453;51.944;9.796;2023-05-25T11:27:00;16.80;56.00
75819;DHT22;64453;51.944;9.796;2023-05-25T11:29:30;16.90;56.80
75819;DHT22;64453;51.944;9.796;2023-05-25T11:32:00;16.90;56.40
75819;DHT22;64453;51.944;9.796;2023-05-25T11:34:29;17.00;56.20
75819;DHT22;64453;51.944;9.796;2023-05-25T11:36:58;16.40;56.80
75819;DHT22;64453;51.944;9.796;2023-05-25T11:39:30;16.60;56.50
75819;DHT22;64453;51.944;9.796;2023-05-25T11:42:01;16.70;57.20
75819;DHT22;64453;51.944;9.796;2023-05-25T11:44:32;16.60;55.50
75819;DHT22;64453;51.944;9.796;2023-05-25T11:47:04;17.10;57.60
75819;DHT22;64453;51.944;9.796;2023-05-25T11:49:37;17.50;56.70
75819;DHT22;64453;51.944;9.796;2023-05-25T11:52:06;17.30;56.10
75819;DHT22;64453;51.944;9.796;2023-05-25T11:54:34;17.30;56.70
75819;DHT22;64453;51.944;9.796;2023-05-25T11:57:01;17.60;56.60
75819;DHT22;64453;51.944;9.796;2023-05-25T11:59:29;17.70;55.90
75819;DHT22;64453;51.944;9.796;2023-05-25T12:01:57;17.90;55.90
75819;DHT22;64453;51.944;9.796;2023-05-25T12:04:24;17.70;54.90
75819;DHT22;64453;51.944;9.796;2023-05-25T12:06:52;17.60;55.10
75819;DHT22;64453;51.944;9.796;2023-05-25T12:09:19;17.80;55.50
75819;DHT22;64453;51.944;9.796;2023-05-25T12:11:49;17.50;55.40
75819;DHT22;64453;51.944;9.796;2023-05-25T12:14:16;17.40;55.10
75819;DHT22;64453;51.944;9.796;2023-05-25T12:16:43;17.60;54.70
75819;DHT22;64453;51.944;9.796;2023-05-25T12:19:10;17.50;55.30
75819;DHT22;64453;51.944;9.796;2023-05-25T12:21:38;17.50;54.90
75819;DHT22;64453;51.944;9.796;2023-05-25T12:24:06;17.70;55.30
75819;DHT22;64453;51.944;9.796;2023-05-25T12:26:34;17.80;57.00
75819;DHT22;64453;51.944;9.796;2023-05-25T12:29:03;17.80;55.00
75819;DHT22;64453;51.944;9.796;2023-05-25T12:31:32;17.70;54.70
75819;DHT22;64453;51.944;9.796;2023-05-25T12:34:04;17.50;54.80
75819;DHT22;64453;51.944;9.796;2023-05-25T12:36:36;17.80;54.20
75819;DHT22;64453;51.944;9.796;2023-05-25T12:39:04;18.10;53.90
75819;DHT22;64453;51.944;9.796;2023-05-25T12:41:31;18.30;53.10
75819;DHT22;64453;51.944;9.796;2023-05-25T12:43:58;18.30;52.40
75819;DHT22;64453;51.944;9.796;2023-05-25T12:46:26;18.40;52.40
75819;DHT22;64453;51.944;9.796;2023-05-25T12:48:53;18.40;52.50
75819;DHT22;64453;51.944;9.796;2023-05-25T12:51:20;18.50;53.60
75819;DHT22;64453;51.944;9.796;2023-05-25T12:53:48;18.60;54.20
75819;DHT22;64453;51.944;9.796;2023-05-25T12:56:16;18.60;54.60
75819;DHT22;64453;51.944;9.796;2023-05-25T12:58:44;18.70;53.20
75819;DHT22;64453;51.944;9.796;2023-05-25T13:01:11;18.70;53.00
75819;DHT22;64453;51.944;9.796;2023-05-25T13:03:39;18.40;52.50
75819;DHT22;64453;51.944;9.796;2023-05-25T13:06:06;18.50;53.20
75819;DHT22;64453;51.944;9.796;2023-05-25T13:08:33;18.60;52.60
75819;DHT22;64453;51.944;9.796;2023-05-25T13:11:00;18.60;52.40
75819;DHT22;64453;51.944;9.796;2023-05-25T13:13:28;18.60;51.80
75819;DHT22;64453;51.944;9.796;2023-05-25T13:15:54;18.70;53.10
75819;DHT22;64453;51.944;9.796;2023-05-25T13:18:22;18.90;53.90
75819;DHT22;64453;51.944;9.796;2023-05-25T13:20:50;18.80;53.30
75819;DHT22;64453;51.944;9.796;2023-05-25T13:23:18;18.80;53.50
75819;DHT22;64453;51.944;9.796;2023-05-25T13:25:45;18.90;54.40
75819;DHT22;64453;51.944;9.796;2023-05-25T13:28:11;18.70;52.50
75819;DHT22;64453;51.944;9.796;2023-05-25T13:30:38;19.10;53.30
75819;DHT22;64453;51.944;9.796;2023-05-25T13:33:05;19.20;52.60
75819;DHT22;64453;51.944;9.796;2023-05-25T13:35:32;19.20;51.60
75819;DHT22;64453;51.944;9.796;2023-05-25T13:38:23;19.10;53.70
75819;DHT22;64453;51.944;9.796;2023-05-25T13:40:50;19.10;53.50
75819;DHT22;64453;51.944;9.796;2023-05-25T13:43:17;19.30;52.80
75819;DHT22;64453;51.944;9.796;2023-05-25T13:45:43;19.40;54.10
75819;DHT22;64453;51.944;9.796;2023-05-25T13:48:10;19.20;53.20
75819;DHT22;64453;51.944;9.796;2023-05-25T13:50:37;19.40;54.00
75819;DHT22;64453;51.944;9.796;2023-05-25T13:53:04;19.30;52.60
75819;DHT22;64453;51.944;9.796;2023-05-25T13:55:32;19.30;52.90
75819;DHT22;64453;51.944;9.796;2023-05-25T13:57:59;19.50;53.10
75819;DHT22;64453;51.944;9.796;2023-05-25T14:00:26;19.60;52.60
75819;DHT22;64453;51.944;9.796;2023-05-25T14:02:53;19.60;51.00
75819;DHT22;64453;51.944;9.796;2023-05-25T14:05:20;19.70;51.30
75819;DHT22;64453;51.944;9.796;2023-05-25T14:07:47;19.60;50.00
75819;DHT22;64453;51.944;9.796;2023-05-25T14:10:14;19.60;50.30
75819;DHT22;64453;51.944;9.796;2023-05-25T14:12:43;19.70;50.20
75819;DHT22;64453;51.944;9.796;2023-05-25T14:15:10;19.70;48.50
75819;DHT22;64453;51.944;9.796;2023-05-25T14:17:37;19.70;51.30
75819;DHT22;64453;51.944;9.796;2023-05-25T14:20:05;19.60;48.90
75819;DHT22;64453;51.944;9.796;2023-05-25T14:22:34;19.50;46.90
75819;DHT22;64453;51.944;9.796;2023-05-25T14:25:00;19.50;49.80
75819;DHT22;64453;51.944;9.796;2023-05-25T14:27:27;19.80;48.60
75819;DHT22;64453;51.944;9.796;2023-05-25T14:29:58;20.00;50.30
75819;DHT22;64453;51.944;9.796;2023-05-25T14:32:25;20.00;49.80
75819;DHT22;64453;51.944;9.796;2023-05-25T14:34:52;20.00;49.90
75819;DHT22;64453;51.944;9.796;2023-05-25T14:37:19;20.10;50.50
75819;DHT22;64453;51.944;9.796;2023-05-25T14:39:46;20.30;50.60
75819;DHT22;64453;51.944;9.796;2023-05-25T14:42:12;20.30;49.60
75819;DHT22;64453;51.944;9.796;2023-05-25T14:44:40;20.40;48.50
75819;DHT22;64453;51.944;9.796;2023-05-25T14:47:08;20.20;48.20
75819;DHT22;64453;51.944;9.796;2023-05-25T14:49:35;20.30;48.40
75819;DHT22;64453;51.944;9.796;2023-05-25T14:52:01;20.20;48.00
75819;DHT22;64453;51.944;9.796;2023-05-25T14:54:28;20.20;48.50
75819;DHT22;64453;51.944;9.796;2023-05-25T14:56:55;20.00;47.70
75819;DHT22;64453;51.944;9.796;2023-05-25T14:59:22;20.20;48.40
75819;DHT22;64453;51.944;9.796;2023-05-25T15:01:49;20.10;49.40
75819;DHT22;64453;51.944;9.796;2023-05-25T15:04:17;20.30;49.20
75819;DHT22;64453;51.944;9.796;2023-05-25T15:06:44;20.20;46.60
75819;DHT22;64453;51.944;9.796;2023-05-25T15:09:11;20.20;48.40
75819;DHT22;64453;51.944;9.796;2023-05-25T15:11:40;20.20;46.60
75819;DHT22;64453;51.944;9.796;2023-05-25T15:14:07;20.10;48.60
75819;DHT22;64453;51.944;9.796;2023-05-25T15:16:33;20.30;49.20
75819;DHT22;64453;51.944;9.796;2023-05-25T15:19:00;20.40;48.30
75819;DHT22;64453;51.944;9.796;2023-05-25T15:21:28;20.40;49.20
75819;DHT22;64453;51.944;9.796;2023-05-25T15:23:55;20.20;46.80
75819;DHT22;64453;51.944;9.796;2023-05-25T15:26:22;20.20;48.30
75819;DHT22;64453;51.944;9.796;2023-05-25T15:28:49;20.10;48.00
75819;DHT22;64453;51.944;9.796;2023-05-25T15:31:16;20.10;48.30
75819;DHT22;64453;51.944;9.796;2023-05-25T15:33:43;20.80;48.40
75819;DHT22;64453;51.944;9.796;2023-05-25T15:36:11;20.90;47.40